sensor_id;sensor_type;location;lat;lon;timestamp;P1;durP1;ratioP1;P2;durP2;ratioP2
25824;SDS011;13658;44.534;18.694;2023-09-19T00:01:39;19.02;;;14.43;;
25824;SDS011;13658;44.534;18.694;2023-09-19T00:04:08;18.95;;;14.73;;
25824;SDS011;13658;44.534;18.694;2023-09-19T00:06:35;17.83;;;14.93;;
25824;SDS011;13658;44.534;18.694;2023-09-19T00:09:04;21.77;;;14.98;;
25824;SDS011;13658;44.534;18.694;2023-09-19T00:11:36;18.63;;;15.63;;
25824;SDS011;13658;44.534;18.694;2023-09-19T00:14:03;19.60;;;15.45;;
25824;SDS011;13658;44.534;18.694;2023-09-19T00:16:33;19.95;;;15.38;;
25824;SDS011;13658;44.534;18.694;2023-09-19T00:19:00;20.05;;;15.18;;
25824;SDS011;13658;44.534;18.694;2023-09-19T00:21:26;20.90;;;14.98;;
25824;SDS011;13658;44.534;18.694;2023-09-19T00:23:53;22.48;;;16.88;;
25824;SDS011;13658;44.534;18.694;2023-09-19T00:26:20;20.15;;;16.90;;
25824;SDS011;13658;44.534;18.694;2023-09-19T00:28:48;25.00;;;16.73;;
25824;SDS011;13658;44.534;18.694;2023-09-19T00:31:13;23.75;;;16.83;;
25824;SDS011;13658;44.534;18.694;2023-09-19T00:33:39;19.55;;;16.42;;
25824;SDS011;13658;44.534;18.694;2023-09-19T00:36:05;19.17;;;15.95;;
25824;SDS011;13658;44.534;18.694;2023-09-19T00:38:31;23.13;;;15.00;;
25824;SDS011;13658;44.534;18.694;2023-09-19T00:40:57;21.52;;;15.23;;
25824;SDS011;13658;44.534;18.694;2023-09-19T00:43:25;21.02;;;15.50;;
25824;SDS011;13658;44.534;18.694;2023-09-19T00:45:52;19.35;;;15.40;;
25824;SDS011;13658;44.534;18.694;2023-09-19T00:48:20;19.10;;;14.85;;
25824;SDS011;13658;44.534;18.694;2023-09-19T00:50:48;19.58;;;16.00;;
25824;SDS011;13658;44.534;18.694;2023-09-19T00:53:18;18.55;;;15.65;;
25824;SDS011;13658;44.534;18.694;2023-09-19T00:55:46;21.98;;;15.70;;
25824;SDS011;13658;44.534;18.694;2023-09-19T00:58:13;18.63;;;15.02;;
25824;SDS011;13658;44.534;18.694;2023-09-19T01:00:40;20.77;;;15.63;;
25824;SDS011;13658;44.534;18.694;2023-09-19T01:03:10;20.95;;;15.35;;
25824;SDS011;13658;44.534;18.694;2023-09-19T01:05:39;20.15;;;15.82;;
25824;SDS011;13658;44.534;18.694;2023-09-19T01:08:06;20.67;;;15.52;;
25824;SDS011;13658;44.534;18.694;2023-09-19T01:10:32;21.20;;;15.05;;
25824;SDS011;13658;44.534;18.694;2023-09-19T01:13:08;21.75;;;15.55;;
25824;SDS011;13658;44.534;18.694;2023-09-19T01:15:49;19.40;;;15.93;;
25824;SDS011;13658;44.534;18.694;2023-09-19T01:18:30;20.88;;;15.02;;
25824;SDS011;13658;44.534;18.694;2023-09-19T01:26:28;19.75;;;15.07;;
25824;SDS011;13658;44.534;18.694;2023-09-19T01:29:38;21.45;;;14.60;;
25824;SDS011;13658;44.534;18.694;2023-09-19T01:32:05;19.15;;;14.88;;
25824;SDS011;13658;44.534;18.694;2023-09-19T01:34:52;18.73;;;14.55;;
25824;SDS011;13658;44.534;18.694;2023-09-19T01:37:23;19.38;;;14.65;;
25824;SDS011;13658;44.534;18.694;2023-09-19T01:39:57;20.15;;;15.18;;
25824;SDS011;13658;44.534;18.694;2023-09-19T01:42:41;17.95;;;14.07;;
25824;SDS011;13658;44.534;18.694;2023-09-19T01:45:12;17.65;;;15.00;;
25824;SDS011;13658;44.534;18.694;2023-09-19T01:47:54;17.73;;;15.18;;
25824;SDS011;13658;44.534;18.694;2023-09-19T01:50:28;17.35;;;14.90;;
25824;SDS011;13658;44.534;18.694;2023-09-19T01:55:55;20.60;;;14.90;;
25824;SDS011;13658;44.534;18.694;2023-09-19T01:58:37;18.92;;;14.35;;
25824;SDS011;13658;44.534;18.694;2023-09-19T02:01:11;19.50;;;14.90;;
25824;SDS011;13658;44.534;18.694;2023-09-19T02:03:41;17.05;;;14.88;;
25824;SDS011;13658;44.534;18.694;2023-09-19T02:06:13;16.70;;;14.50;;
25824;SDS011;13658;44.534;18.694;2023-09-19T02:08:41;20.20;;;15.23;;
25824;SDS011;13658;44.534;18.694;2023-09-19T02:11:06;20.92;;;14.88;;
25824;SDS011;13658;44.534;18.694;2023-09-19T02:13:32;18.08;;;15.15;;
25824;SDS011;13658;44.534;18.694;2023-09-19T02:15:59;18.02;;;14.85;;
25824;SDS011;13658;44.534;18.694;2023-09-19T02:18:25;19.80;;;15.00;;
25824;SDS011;13658;44.534;18.694;2023-09-19T02:20:53;17.60;;;15.00;;
25824;SDS011;13658;44.534;18.694;2023-09-19T02:23:19;17.75;;;15.43;;
25824;SDS011;13658;44.534;18.694;2023-09-19T02:25:52;22.75;;;15.65;;
25824;SDS011;13658;44.534;18.694;2023-09-19T02:28:20;18.58;;;14.98;;
25824;SDS011;13658;44.534;18.694;2023-09-19T02:30:47;17.65;;;14.13;;
25824;SDS011;13658;44.534;18.694;2023-09-19T02:33:15;24.80;;;14.88;;
25824;SDS011;13658;44.534;18.694;2023-09-19T02:35:42;16.48;;;14.07;;
25824;SDS011;13658;44.534;18.694;2023-09-19T02:38:08;20.17;;;14.82;;
25824;SDS011;13658;44.534;18.694;2023-09-19T02:40:36;18.58;;;14.40;;
25824;SDS011;13658;44.534;18.694;2023-09-19T02:43:03;19.90;;;14.77;;
25824;SDS011;13658;44.534;18.694;2023-09-19T02:45:30;20.25;;;15.43;;
25824;SDS011;13658;44.534;18.694;2023-09-19T02:47:57;19.38;;;14.93;;
25824;SDS011;13658;44.534;18.694;2023-09-19T02:50:23;18.95;;;15.40;;
25824;SDS011;13658;44.534;18.694;2023-09-19T02:52:49;18.92;;;16.00;;
25824;SDS011;13658;44.534;18.694;2023-09-19T02:55:16;19.77;;;15.45;;
25824;SDS011;13658;44.534;18.694;2023-09-19T02:57:48;18.75;;;14.35;;
25824;SDS011;13658;44.534;18.694;2023-09-19T03:00:15;21.67;;;16.25;;
25824;SDS011;13658;44.534;18.694;2023-09-19T03:02:50;22.73;;;16.08;;
25824;SDS011;13658;44.534;18.694;2023-09-19T03:05:18;19.88;;;16.27;;
25824;SDS011;13658;44.534;18.694;2023-09-19T03:07:49;23.38;;;16.63;;
25824;SDS011;13658;44.534;18.694;2023-09-19T03:10:19;19.70;;;15.95;;
25824;SDS011;13658;44.534;18.694;2023-09-19T03:12:47;19.73;;;16.20;;
25824;SDS011;13658;44.534;18.694;2023-09-19T03:15:14;21.60;;;16.08;;
25824;SDS011;13658;44.534;18.694;2023-09-19T03:17:44;19.67;;;15.88;;
25824;SDS011;13658;44.534;18.694;2023-09-19T03:20:11;18.98;;;15.80;;
25824;SDS011;13658;44.534;18.694;2023-09-19T03:22:41;18.35;;;16.20;;
25824;SDS011;13658;44.534;18.694;2023-09-19T03:25:08;20.02;;;16.20;;
25824;SDS011;13658;44.534;18.694;2023-09-19T03:27:38;23.15;;;16.80;;
25824;SDS011;13658;44.534;18.694;2023-09-19T03:30:06;22.23;;;16.20;;
25824;SDS011;13658;44.534;18.694;2023-09-19T03:32:42;19.25;;;16.25;;
25824;SDS011;13658;44.534;18.694;2023-09-19T03:35:10;18.65;;;16.00;;
25824;SDS011;13658;44.534;18.694;2023-09-19T03:37:36;22.52;;;18.45;;
25824;SDS011;13658;44.534;18.694;2023-09-19T03:40:02;24.95;;;18.90;;
25824;SDS011;13658;44.534;18.694;2023-09-19T03:42:31;20.60;;;16.70;;
25824;SDS011;13658;44.534;18.694;2023-09-19T03:44:57;24.30;;;17.02;;
25824;SDS011;13658;44.534;18.694;2023-09-19T03:47:25;25.95;;;17.75;;
25824;SDS011;13658;44.534;18.694;2023-09-19T03:49:52;22.23;;;16.90;;
25824;SDS011;13658;44.534;18.694;2023-09-19T03:52:18;21.75;;;16.55;;
25824;SDS011;13658;44.534;18.694;2023-09-19T03:54:44;21.90;;;16.45;;
25824;SDS011;13658;44.534;18.694;2023-09-19T03:57:10;20.65;;;16.08;;
25824;SDS011;13658;44.534;18.694;2023-09-19T03:59:41;22.05;;;16.25;;
25824;SDS011;13658;44.534;18.694;2023-09-19T04:02:09;22.92;;;16.13;;
25824;SDS011;13658;44.534;18.694;2023-09-19T04:04:48;22.20;;;16.13;;
25824;SDS011;13658;44.534;18.694;2023-09-19T04:07:15;22.90;;;16.30;;
25824;SDS011;13658;44.534;18.694;2023-09-19T04:09:42;20.52;;;16.98;;
25824;SDS011;13658;44.534;18.694;2023-09-19T04:12:07;22.38;;;17.00;;
25824;SDS011;13658;44.534;18.694;2023-09-19T04:14:36;23.50;;;17.05;;
25824;SDS011;13658;44.534;18.694;2023-09-19T04:17:04;23.13;;;17.65;;
25824;SDS011;13658;44.534;18.694;2023-09-19T04:19:31;21.67;;;15.73;;
25824;SDS011;13658;44.534;18.694;2023-09-19T04:21:57;20.85;;;16.40;;
25824;SDS011;13658;44.534;18.694;2023-09-19T04:24:23;19.92;;;15.65;;
25824;SDS011;13658;44.534;18.694;2023-09-19T04:26:49;22.60;;;15.55;;
25824;SDS011;13658;44.534;18.694;2023-09-19T04:29:14;25.55;;;15.25;;
25824;SDS011;13658;44.534;18.694;2023-09-19T04:31:40;20.95;;;16.58;;
25824;SDS011;13658;44.534;18.694;2023-09-19T04:34:09;25.00;;;16.25;;
25824;SDS011;13658;44.534;18.694;2023-09-19T04:36:35;29.98;;;18.10;;
25824;SDS011;13658;44.534;18.694;2023-09-19T04:39:02;24.35;;;16.60;;
25824;SDS011;13658;44.534;18.694;2023-09-19T04:41:32;28.42;;;16.60;;
25824;SDS011;13658;44.534;18.694;2023-09-19T04:43:59;22.73;;;16.95;;
25824;SDS011;13658;44.534;18.694;2023-09-19T04:46:25;21.13;;;16.38;;
25824;SDS011;13658;44.534;18.694;2023-09-19T04:48:51;24.17;;;17.55;;
25824;SDS011;13658;44.534;18.694;2023-09-19T04:51:17;22.60;;;16.63;;
25824;SDS011;13658;44.534;18.694;2023-09-19T04:53:44;29.17;;;17.02;;
25824;SDS011;13658;44.534;18.694;2023-09-19T04:56:10;28.33;;;17.00;;
25824;SDS011;13658;44.534;18.694;2023-09-19T04:58:36;25.88;;;14.98;;
25824;SDS011;13658;44.534;18.694;2023-09-19T05:01:02;20.17;;;14.73;;
25824;SDS011;13658;44.534;18.694;2023-09-19T05:03:28;20.80;;;14.45;;
25824;SDS011;13658;44.534;18.694;2023-09-19T05:05:54;17.27;;;12.80;;
25824;SDS011;13658;44.534;18.694;2023-09-19T05:08:20;19.98;;;13.05;;
25824;SDS011;13658;44.534;18.694;2023-09-19T05:10:47;18.27;;;12.60;;
25824;SDS011;13658;44.534;18.694;2023-09-19T05:13:14;18.92;;;11.60;;
25824;SDS011;13658;44.534;18.694;2023-09-19T05:15:40;19.48;;;13.30;;
25824;SDS011;13658;44.534;18.694;2023-09-19T05:18:06;15.18;;;12.23;;
25824;SDS011;13658;44.534;18.694;2023-09-19T05:20:32;25.55;;;13.30;;
25824;SDS011;13658;44.534;18.694;2023-09-19T05:23:02;22.92;;;13.75;;
25824;SDS011;13658;44.534;18.694;2023-09-19T05:25:34;22.70;;;12.65;;
25824;SDS011;13658;44.534;18.694;2023-09-19T05:28:08;18.23;;;12.93;;
25824;SDS011;13658;44.534;18.694;2023-09-19T05:30:37;18.75;;;12.68;;
25824;SDS011;13658;44.534;18.694;2023-09-19T05:33:08;21.90;;;14.60;;
25824;SDS011;13658;44.534;18.694;2023-09-19T05:35:34;25.88;;;15.40;;
25824;SDS011;13658;44.534;18.694;2023-09-19T05:38:04;20.65;;;13.18;;
25824;SDS011;13658;44.534;18.694;2023-09-19T05:40:34;23.55;;;14.43;;
25824;SDS011;13658;44.534;18.694;2023-09-19T05:43:00;20.00;;;13.30;;
25824;SDS011;13658;44.534;18.694;2023-09-19T05:45:29;19.40;;;12.40;;
25824;SDS011;13658;44.534;18.694;2023-09-19T05:47:55;19.05;;;12.60;;
25824;SDS011;13658;44.534;18.694;2023-09-19T05:50:29;19.92;;;12.35;;
25824;SDS011;13658;44.534;18.694;2023-09-19T05:52:57;19.58;;;12.05;;
25824;SDS011;13658;44.534;18.694;2023-09-19T05:55:23;18.38;;;11.45;;
25824;SDS011;13658;44.534;18.694;2023-09-19T05:57:50;16.52;;;10.00;;
25824;SDS011;13658;44.534;18.694;2023-09-19T06:00:20;15.98;;;9.38;;
25824;SDS011;13658;44.534;18.694;2023-09-19T06:02:52;12.55;;;9.70;;
25824;SDS011;13658;44.534;18.694;2023-09-19T06:05:19;17.98;;;10.68;;
25824;SDS011;13658;44.534;18.694;2023-09-19T06:07:45;18.27;;;10.48;;
25824;SDS011;13658;44.534;18.694;2023-09-19T06:10:12;18.98;;;10.68;;
25824;SDS011;13658;44.534;18.694;2023-09-19T06:12:39;22.02;;;10.65;;
25824;SDS011;13658;44.534;18.694;2023-09-19T06:15:05;15.70;;;9.80;;
25824;SDS011;13658;44.534;18.694;2023-09-19T06:17:34;18.15;;;10.32;;
25824;SDS011;13658;44.534;18.694;2023-09-19T06:20:06;22.58;;;11.82;;
25824;SDS011;13658;44.534;18.694;2023-09-19T06:22:38;18.25;;;10.63;;
25824;SDS011;13658;44.534;18.694;2023-09-19T06:25:07;21.58;;;11.48;;
25824;SDS011;13658;44.534;18.694;2023-09-19T06:27:36;19.52;;;12.57;;
25824;SDS011;13658;44.534;18.694;2023-09-19T06:30:08;17.13;;;10.00;;
25824;SDS011;13658;44.534;18.694;2023-09-19T06:32:35;18.42;;;9.90;;
25824;SDS011;13658;44.534;18.694;2023-09-19T06:35:01;16.00;;;8.85;;
25824;SDS011;13658;44.534;18.694;2023-09-19T06:37:28;15.57;;;8.20;;
25824;SDS011;13658;44.534;18.694;2023-09-19T06:39:54;34.08;;;21.38;;
25824;SDS011;13658;44.534;18.694;2023-09-19T06:42:22;26.77;;;15.70;;
25824;SDS011;13658;44.534;18.694;2023-09-19T06:44:49;21.30;;;11.45;;
25824;SDS011;13658;44.534;18.694;2023-09-19T06:47:15;21.85;;;10.82;;
25824;SDS011;13658;44.534;18.694;2023-09-19T06:49:44;25.65;;;10.93;;
25824;SDS011;13658;44.534;18.694;2023-09-19T06:52:10;24.02;;;11.02;;
25824;SDS011;13658;44.534;18.694;2023-09-19T06:54:36;18.30;;;10.50;;
25824;SDS011;13658;44.534;18.694;2023-09-19T06:57:03;23.50;;;11.35;;
25824;SDS011;13658;44.534;18.694;2023-09-19T06:59:29;21.00;;;10.80;;
25824;SDS011;13658;44.534;18.694;2023-09-19T07:01:57;22.27;;;9.55;;
25824;SDS011;13658;44.534;18.694;2023-09-19T07:04:24;19.30;;;11.57;;
25824;SDS011;13658;44.534;18.694;2023-09-19T07:06:50;20.08;;;10.95;;
25824;SDS011;13658;44.534;18.694;2023-09-19T07:09:16;17.27;;;10.32;;
25824;SDS011;13658;44.534;18.694;2023-09-19T07:11:45;21.67;;;11.35;;
25824;SDS011;13658;44.534;18.694;2023-09-19T07:14:13;22.45;;;11.00;;
25824;SDS011;13658;44.534;18.694;2023-09-19T07:16:39;25.50;;;11.10;;
25824;SDS011;13658;44.534;18.694;2023-09-19T07:19:07;21.77;;;11.07;;
25824;SDS011;13658;44.534;18.694;2023-09-19T07:21:33;21.02;;;12.07;;
25824;SDS011;13658;44.534;18.694;2023-09-19T07:24:00;24.75;;;13.75;;
25824;SDS011;13658;44.534;18.694;2023-09-19T07:26:28;35.55;;;18.98;;
25824;SDS011;13658;44.534;18.694;2023-09-19T07:28:54;24.35;;;13.52;;
25824;SDS011;13658;44.534;18.694;2023-09-19T07:31:21;19.02;;;10.13;;
25824;SDS011;13658;44.534;18.694;2023-09-19T07:33:48;22.15;;;10.73;;
25824;SDS011;13658;44.534;18.694;2023-09-19T07:36:14;27.60;;;19.33;;
25824;SDS011;13658;44.534;18.694;2023-09-19T07:38:41;23.73;;;13.13;;
25824;SDS011;13658;44.534;18.694;2023-09-19T07:41:07;27.02;;;15.70;;
25824;SDS011;13658;44.534;18.694;2023-09-19T07:43:37;21.48;;;13.90;;
25824;SDS011;13658;44.534;18.694;2023-09-19T07:46:05;22.23;;;12.30;;
25824;SDS011;13658;44.534;18.694;2023-09-19T07:48:33;29.30;;;17.92;;
25824;SDS011;13658;44.534;18.694;2023-09-19T07:51:04;20.55;;;12.60;;
25824;SDS011;13658;44.534;18.694;2023-09-19T07:53:32;25.02;;;11.02;;
25824;SDS011;13658;44.534;18.694;2023-09-19T07:56:06;23.92;;;12.60;;
25824;SDS011;13658;44.534;18.694;2023-09-19T07:58:35;24.65;;;13.25;;
25824;SDS011;13658;44.534;18.694;2023-09-19T08:01:04;28.13;;;13.73;;
25824;SDS011;13658;44.534;18.694;2023-09-19T08:03:35;20.98;;;13.20;;
25824;SDS011;13658;44.534;18.694;2023-09-19T08:06:06;31.80;;;16.27;;
25824;SDS011;13658;44.534;18.694;2023-09-19T08:08:36;24.30;;;10.23;;
25824;SDS011;13658;44.534;18.694;2023-09-19T08:11:02;21.20;;;12.07;;
25824;SDS011;13658;44.534;18.694;2023-09-19T08:13:37;26.23;;;14.20;;
25824;SDS011;13658;44.534;18.694;2023-09-19T08:16:09;22.60;;;10.55;;
25824;SDS011;13658;44.534;18.694;2023-09-19T08:18:36;23.08;;;11.55;;
25824;SDS011;13658;44.534;18.694;2023-09-19T08:21:05;30.67;;;18.83;;
25824;SDS011;13658;44.534;18.694;2023-09-19T08:23:39;23.15;;;11.07;;
25824;SDS011;13658;44.534;18.694;2023-09-19T08:26:06;23.35;;;9.05;;
25824;SDS011;13658;44.534;18.694;2023-09-19T08:28:35;23.50;;;10.60;;
25824;SDS011;13658;44.534;18.694;2023-09-19T08:31:02;23.40;;;10.38;;
25824;SDS011;13658;44.534;18.694;2023-09-19T08:33:32;27.58;;;10.98;;
25824;SDS011;13658;44.534;18.694;2023-09-19T08:35:59;24.00;;;12.05;;
25824;SDS011;13658;44.534;18.694;2023-09-19T08:38:25;29.67;;;11.70;;
25824;SDS011;13658;44.534;18.694;2023-09-19T08:40:58;28.05;;;9.77;;
25824;SDS011;13658;44.534;18.694;2023-09-19T08:43:25;21.27;;;9.52;;
25824;SDS011;13658;44.534;18.694;2023-09-19T08:48:47;27.58;;;11.77;;
25824;SDS011;13658;44.534;18.694;2023-09-19T08:51:26;27.50;;;11.73;;
25824;SDS011;13658;44.534;18.694;2023-09-19T08:54:08;22.92;;;9.38;;
25824;SDS011;13658;44.534;18.694;2023-09-19T08:56:38;27.65;;;12.55;;
25824;SDS011;13658;44.534;18.694;2023-09-19T08:59:07;25.10;;;12.18;;
25824;SDS011;13658;44.534;18.694;2023-09-19T09:01:33;25.58;;;10.85;;
25824;SDS011;13658;44.534;18.694;2023-09-19T09:04:01;24.83;;;9.88;;
25824;SDS011;13658;44.534;18.694;2023-09-19T09:06:27;22.38;;;9.68;;
25824;SDS011;13658;44.534;18.694;2023-09-19T09:08:54;26.40;;;10.38;;
25824;SDS011;13658;44.534;18.694;2023-09-19T09:11:22;24.50;;;9.55;;
25824;SDS011;13658;44.534;18.694;2023-09-19T09:13:51;16.80;;;9.27;;
25824;SDS011;13658;44.534;18.694;2023-09-19T09:16:17;25.55;;;11.32;;
25824;SDS011;13658;44.534;18.694;2023-09-19T09:18:44;27.45;;;11.63;;
25824;SDS011;13658;44.534;18.694;2023-09-19T09:21:11;27.85;;;10.77;;
25824;SDS011;13658;44.534;18.694;2023-09-19T09:23:39;25.58;;;10.77;;
25824;SDS011;13658;44.534;18.694;2023-09-19T09:26:05;25.15;;;7.93;;
25824;SDS011;13658;44.534;18.694;2023-09-19T09:28:33;29.90;;;9.80;;
25824;SDS011;13658;44.534;18.694;2023-09-19T09:31:00;23.23;;;9.40;;
25824;SDS011;13658;44.534;18.694;2023-09-19T09:33:30;28.13;;;10.35;;
25824;SDS011;13658;44.534;18.694;2023-09-19T09:35:57;29.08;;;9.10;;
25824;SDS011;13658;44.534;18.694;2023-09-19T09:38:27;23.10;;;8.63;;
25824;SDS011;13658;44.534;18.694;2023-09-19T09:41:15;23.85;;;8.15;;
25824;SDS011;13658;44.534;18.694;2023-09-19T09:43:52;21.35;;;9.95;;
25824;SDS011;13658;44.534;18.694;2023-09-19T09:46:20;24.92;;;10.95;;
25824;SDS011;13658;44.534;18.694;2023-09-19T09:57:07;21.90;;;8.82;;
25824;SDS011;13658;44.534;18.694;2023-09-19T10:05:11;25.38;;;9.05;;
25824;SDS011;13658;44.534;18.694;2023-09-19T10:08:11;24.33;;;9.60;;
25824;SDS011;13658;44.534;18.694;2023-09-19T10:10:38;27.63;;;10.33;;
25824;SDS011;13658;44.534;18.694;2023-09-19T10:13:08;25.75;;;9.57;;
25824;SDS011;13658;44.534;18.694;2023-09-19T10:15:43;24.83;;;9.02;;
25824;SDS011;13658;44.534;18.694;2023-09-19T10:18:16;23.65;;;8.35;;
25824;SDS011;13658;44.534;18.694;2023-09-19T10:20:46;19.80;;;8.00;;
25824;SDS011;13658;44.534;18.694;2023-09-19T10:23:14;28.60;;;7.35;;
25824;SDS011;13658;44.534;18.694;2023-09-19T10:28:14;26.23;;;7.22;;
25824;SDS011;13658;44.534;18.694;2023-09-19T10:30:44;30.23;;;9.30;;
25824;SDS011;13658;44.534;18.694;2023-09-19T10:33:16;26.23;;;8.75;;
25824;SDS011;13658;44.534;18.694;2023-09-19T10:35:44;29.77;;;9.40;;
25824;SDS011;13658;44.534;18.694;2023-09-19T10:38:11;29.55;;;11.82;;
25824;SDS011;13658;44.534;18.694;2023-09-19T10:40:39;23.13;;;9.23;;
25824;SDS011;13658;44.534;18.694;2023-09-19T10:43:13;26.55;;;8.98;;
25824;SDS011;13658;44.534;18.694;2023-09-19T10:45:45;27.13;;;10.88;;
25824;SDS011;13658;44.534;18.694;2023-09-19T10:48:15;25.75;;;9.63;;
25824;SDS011;13658;44.534;18.694;2023-09-19T10:50:53;27.83;;;9.05;;
25824;SDS011;13658;44.534;18.694;2023-09-19T10:53:30;26.30;;;8.75;;
25824;SDS011;13658;44.534;18.694;2023-09-19T10:56:52;23.05;;;9.68;;
25824;SDS011;13658;44.534;18.694;2023-09-19T10:59:16;24.27;;;9.02;;
25824;SDS011;13658;44.534;18.694;2023-09-19T11:01:53;25.77;;;8.38;;
25824;SDS011;13658;44.534;18.694;2023-09-19T11:04:33;26.70;;;7.85;;
25824;SDS011;13658;44.534;18.694;2023-09-19T11:07:07;29.25;;;7.95;;
25824;SDS011;13658;44.534;18.694;2023-09-19T11:14:56;28.75;;;10.88;;
25824;SDS011;13658;44.534;18.694;2023-09-19T11:17:31;27.52;;;7.70;;
25824;SDS011;13658;44.534;18.694;2023-09-19T11:30:47;28.38;;;10.13;;
25824;SDS011;13658;44.534;18.694;2023-09-19T11:36:04;25.55;;;7.57;;
25824;SDS011;13658;44.534;18.694;2023-09-19T11:43:52;22.52;;;6.95;;
25824;SDS011;13658;44.534;18.694;2023-09-19T11:49:18;17.27;;;7.43;;
25824;SDS011;13658;44.534;18.694;2023-09-19T11:51:51;23.70;;;6.85;;
25824;SDS011;13658;44.534;18.694;2023-09-19T11:54:17;19.55;;;7.43;;
25824;SDS011;13658;44.534;18.694;2023-09-19T11:56:48;24.75;;;6.35;;
25824;SDS011;13658;44.534;18.694;2023-09-19T11:59:25;23.30;;;7.28;;
25824;SDS011;13658;44.534;18.694;2023-09-19T12:01:55;17.05;;;6.20;;
25824;SDS011;13658;44.534;18.694;2023-09-19T12:04:43;20.90;;;6.85;;
25824;SDS011;13658;44.534;18.694;2023-09-19T12:07:11;24.02;;;6.95;;
25824;SDS011;13658;44.534;18.694;2023-09-19T12:12:20;22.65;;;7.55;;
25824;SDS011;13658;44.534;18.694;2023-09-19T12:14:48;18.48;;;6.82;;
25824;SDS011;13658;44.534;18.694;2023-09-19T12:17:18;21.90;;;7.07;;
25824;SDS011;13658;44.534;18.694;2023-09-19T12:19:51;16.95;;;7.10;;
25824;SDS011;13658;44.534;18.694;2023-09-19T12:22:17;19.92;;;7.47;;
25824;SDS011;13658;44.534;18.694;2023-09-19T12:24:45;28.25;;;7.70;;
25824;SDS011;13658;44.534;18.694;2023-09-19T12:27:12;23.63;;;7.63;;
25824;SDS011;13658;44.534;18.694;2023-09-19T12:29:47;20.25;;;7.25;;
25824;SDS011;13658;44.534;18.694;2023-09-19T12:32:14;17.13;;;7.10;;
25824;SDS011;13658;44.534;18.694;2023-09-19T12:34:42;20.60;;;7.82;;
25824;SDS011;13658;44.534;18.694;2023-09-19T12:37:16;23.17;;;7.32;;
25824;SDS011;13658;44.534;18.694;2023-09-19T12:39:48;18.08;;;7.45;;
25824;SDS011;13658;44.534;18.694;2023-09-19T12:42:20;16.83;;;6.90;;
25824;SDS011;13658;44.534;18.694;2023-09-19T12:44:53;22.48;;;7.03;;
25824;SDS011;13658;44.534;18.694;2023-09-19T12:47:27;22.08;;;7.00;;
25824;SDS011;13658;44.534;18.694;2023-09-19T12:50:07;20.15;;;7.15;;
25824;SDS011;13658;44.534;18.694;2023-09-19T12:52:47;18.58;;;6.75;;
25824;SDS011;13658;44.534;18.694;2023-09-19T12:55:21;23.05;;;8.32;;
25824;SDS011;13658;44.534;18.694;2023-09-19T12:58:11;17.17;;;6.90;;
25824;SDS011;13658;44.534;18.694;2023-09-19T13:00:38;26.27;;;9.70;;
25824;SDS011;13658;44.534;18.694;2023-09-19T13:03:16;15.00;;;6.43;;
25824;SDS011;13658;44.534;18.694;2023-09-19T13:05:59;17.98;;;7.18;;
25824;SDS011;13658;44.534;18.694;2023-09-19T13:08:28;18.67;;;6.93;;
25824;SDS011;13658;44.534;18.694;2023-09-19T13:11:05;21.50;;;7.90;;
25824;SDS011;13658;44.534;18.694;2023-09-19T13:16:06;16.70;;;7.38;;
25824;SDS011;13658;44.534;18.694;2023-09-19T13:18:43;16.08;;;5.85;;
25824;SDS011;13658;44.534;18.694;2023-09-19T13:21:11;14.60;;;6.00;;
25824;SDS011;13658;44.534;18.694;2023-09-19T13:23:51;21.10;;;7.28;;
25824;SDS011;13658;44.534;18.694;2023-09-19T13:26:19;25.48;;;8.02;;
25824;SDS011;13658;44.534;18.694;2023-09-19T13:28:45;17.73;;;9.25;;
25824;SDS011;13658;44.534;18.694;2023-09-19T13:31:14;22.60;;;7.10;;
25824;SDS011;13658;44.534;18.694;2023-09-19T13:33:45;15.60;;;6.57;;
25824;SDS011;13658;44.534;18.694;2023-09-19T13:36:12;23.50;;;6.57;;
25824;SDS011;13658;44.534;18.694;2023-09-19T13:38:39;19.30;;;6.53;;
25824;SDS011;13658;44.534;18.694;2023-09-19T13:41:09;16.00;;;6.78;;
25824;SDS011;13658;44.534;18.694;2023-09-19T13:43:35;16.85;;;6.10;;
25824;SDS011;13658;44.534;18.694;2023-09-19T13:46:05;22.73;;;6.50;;
25824;SDS011;13658;44.534;18.694;2023-09-19T13:48:40;22.50;;;6.90;;
25824;SDS011;13658;44.534;18.694;2023-09-19T13:51:06;19.17;;;6.75;;
25824;SDS011;13658;44.534;18.694;2023-09-19T13:53:32;36.17;;;23.02;;
25824;SDS011;13658;44.534;18.694;2023-09-19T13:55:59;30.67;;;15.13;;
25824;SDS011;13658;44.534;18.694;2023-09-19T13:58:25;17.83;;;7.72;;
25824;SDS011;13658;44.534;18.694;2023-09-19T14:00:52;25.48;;;10.73;;
25824;SDS011;13658;44.534;18.694;2023-09-19T14:03:20;19.50;;;6.68;;
25824;SDS011;13658;44.534;18.694;2023-09-19T14:05:47;20.33;;;6.50;;
25824;SDS011;13658;44.534;18.694;2023-09-19T14:08:14;24.23;;;6.72;;
25824;SDS011;13658;44.534;18.694;2023-09-19T14:10:40;24.73;;;6.18;;
25824;SDS011;13658;44.534;18.694;2023-09-19T14:13:06;36.70;;;21.45;;
25824;SDS011;13658;44.534;18.694;2023-09-19T14:15:32;18.67;;;6.00;;
25824;SDS011;13658;44.534;18.694;2023-09-19T14:18:00;14.48;;;6.63;;
25824;SDS011;13658;44.534;18.694;2023-09-19T14:20:26;18.25;;;7.57;;
25824;SDS011;13658;44.534;18.694;2023-09-19T14:22:53;17.55;;;7.55;;
25824;SDS011;13658;44.534;18.694;2023-09-19T14:25:20;20.05;;;7.68;;
25824;SDS011;13658;44.534;18.694;2023-09-19T14:27:47;20.92;;;8.13;;
25824;SDS011;13658;44.534;18.694;2023-09-19T14:30:13;23.48;;;10.25;;
25824;SDS011;13658;44.534;18.694;2023-09-19T14:32:39;19.60;;;9.32;;
25824;SDS011;13658;44.534;18.694;2023-09-19T14:35:06;23.33;;;9.40;;
25824;SDS011;13658;44.534;18.694;2023-09-19T14:37:34;21.48;;;9.45;;
25824;SDS011;13658;44.534;18.694;2023-09-19T14:40:00;23.45;;;8.93;;
25824;SDS011;13658;44.534;18.694;2023-09-19T14:42:32;23.73;;;9.68;;
25824;SDS011;13658;44.534;18.694;2023-09-19T14:45:01;27.90;;;9.82;;
25824;SDS011;13658;44.534;18.694;2023-09-19T14:47:28;21.35;;;10.13;;
25824;SDS011;13658;44.534;18.694;2023-09-19T14:49:57;35.97;;;16.23;;
25824;SDS011;13658;44.534;18.694;2023-09-19T14:52:23;21.52;;;7.97;;
25824;SDS011;13658;44.534;18.694;2023-09-19T14:54:52;19.00;;;8.77;;
25824;SDS011;13658;44.534;18.694;2023-09-19T14:57:18;19.25;;;8.25;;
25824;SDS011;13658;44.534;18.694;2023-09-19T14:59:44;24.52;;;8.98;;
25824;SDS011;13658;44.534;18.694;2023-09-19T15:02:10;23.73;;;10.48;;
25824;SDS011;13658;44.534;18.694;2023-09-19T15:04:36;22.00;;;9.65;;
25824;SDS011;13658;44.534;18.694;2023-09-19T15:07:05;25.73;;;10.75;;
25824;SDS011;13658;44.534;18.694;2023-09-19T15:09:31;22.40;;;8.63;;
25824;SDS011;13658;44.534;18.694;2023-09-19T15:11:58;29.95;;;8.50;;
25824;SDS011;13658;44.534;18.694;2023-09-19T15:14:25;21.38;;;9.55;;
25824;SDS011;13658;44.534;18.694;2023-09-19T15:16:51;24.55;;;9.02;;
25824;SDS011;13658;44.534;18.694;2023-09-19T15:19:17;25.75;;;9.10;;
25824;SDS011;13658;44.534;18.694;2023-09-19T15:21:44;23.55;;;8.88;;
25824;SDS011;13658;44.534;18.694;2023-09-19T15:24:10;21.73;;;8.50;;
25824;SDS011;13658;44.534;18.694;2023-09-19T15:26:36;20.02;;;8.20;;